sensor_id;sensor_type;location;lat;lon;timestamp;temperature;humidity
11894;DHT22;6006;49.696;8.662;2023-06-10T00:01:37;19.40;1.00
11894;DHT22;6006;49.696;8.662;2023-06-10T00:04:05;19.30;1.00
11894;DHT22;6006;49.696;8.662;2023-06-10T00:06:32;19.20;1.00
11894;DHT22;6006;49.696;8.662;2023-06-10T00:09:02;19.30;1.00
11894;DHT22;6006;49.696;8.662;2023-06-10T00:11:31;19.10;1.00
11894;DHT22;6006;49.696;8.662;2023-06-10T00:13:58;19.10;1.00
11894;DHT22;6006;49.696;8.662;2023-06-10T00:16:25;19.10;1.00
11894;DHT22;6006;49.696;8.662;2023-06-10T00:18:52;19.00;1.00
11894;DHT22;6006;49.696;8.662;2023-06-10T00:21:22;19.00;1.00
11894;DHT22;6006;49.696;8.662;2023-06-10T00:23:50;19.00;1.00
11894;DHT22;6006;49.696;8.662;2023-06-10T00:26:17;19.00;1.00
11894;DHT22;6006;49.696;8.662;2023-06-10T00:28:44;18.90;1.00
11894;DHT22;6006;49.696;8.662;2023-06-10T00:31:11;18.70;1.00
11894;DHT22;6006;49.696;8.662;2023-06-10T00:33:38;18.60;1.00
11894;DHT22;6006;49.696;8.662;2023-06-10T00:36:05;18.50;46.70
11894;DHT22;6006;49.696;8.662;2023-06-10T00:38:33;18.50;70.80
11894;DHT22;6006;49.696;8.662;2023-06-10T00:41:00;18.50;49.30
11894;DHT22;6006;49.696;8.662;2023-06-10T00:43:27;18.50;51.00
11894;DHT22;6006;49.696;8.662;2023-06-10T00:45:54;18.40;41.00
11894;DHT22;6006;49.696;8.662;2023-06-10T00:48:21;18.40;19.80
11894;DHT22;6006;49.696;8.662;2023-06-10T00:50:48;18.40;1.00
11894;DHT22;6006;49.696;8.662;2023-06-10T00:53:15;18.40;7.60
11894;DHT22;6006;49.696;8.662;2023-06-10T00:55:44;18.40;1.00
11894;DHT22;6006;49.696;8.662;2023-06-10T00:58:11;18.30;1.00
11894;DHT22;6006;49.696;8.662;2023-06-10T01:00:38;18.30;1.00
11894;DHT22;6006;49.696;8.662;2023-06-10T01:03:05;18.30;1.00
11894;DHT22;6006;49.696;8.662;2023-06-10T01:05:33;18.30;1.00
11894;DHT22;6006;49.696;8.662;2023-06-10T01:08:06;18.20;1.00
11894;DHT22;6006;49.696;8.662;2023-06-10T01:10:39;18.20;1.00
11894;DHT22;6006;49.696;8.662;2023-06-10T01:13:11;18.10;99.10
11894;DHT22;6006;49.696;8.662;2023-06-10T01:15:38;18.00;99.90
11894;DHT22;6006;49.696;8.662;2023-06-10T01:18:07;17.70;1.00
11894;DHT22;6006;49.696;8.662;2023-06-10T01:20:36;17.40;97.60
11894;DHT22;6006;49.696;8.662;2023-06-10T01:23:07;17.10;99.90
11894;DHT22;6006;49.696;8.662;2023-06-10T01:25:37;16.80;1.00
11894;DHT22;6006;49.696;8.662;2023-06-10T01:28:08;16.70;1.00
11894;DHT22;6006;49.696;8.662;2023-06-10T01:30:41;16.50;99.90
11894;DHT22;6006;49.696;8.662;2023-06-10T01:33:13;16.30;1.00
11894;DHT22;6006;49.696;8.662;2023-06-10T01:35:41;16.10;45.00
11894;DHT22;6006;49.696;8.662;2023-06-10T01:38:12;16.00;99.90
11894;DHT22;6006;49.696;8.662;2023-06-10T01:40:41;15.80;99.90
11894;DHT22;6006;49.696;8.662;2023-06-10T01:43:08;15.80;99.90
11894;DHT22;6006;49.696;8.662;2023-06-10T01:45:35;15.70;1.00
11894;DHT22;6006;49.696;8.662;2023-06-10T01:48:02;15.50;1.00
11894;DHT22;6006;49.696;8.662;2023-06-10T01:50:29;15.40;1.00
11894;DHT22;6006;49.696;8.662;2023-06-10T01:52:57;15.40;99.90
11894;DHT22;6006;49.696;8.662;2023-06-10T01:55:26;15.30;1.00
11894;DHT22;6006;49.696;8.662;2023-06-10T01:57:52;15.20;1.00
11894;DHT22;6006;49.696;8.662;2023-06-10T02:00:19;15.10;99.90
11894;DHT22;6006;49.696;8.662;2023-06-10T02:02:46;15.00;1.00
11894;DHT22;6006;49.696;8.662;2023-06-10T02:05:13;14.90;1.00
11894;DHT22;6006;49.696;8.662;2023-06-10T02:07:40;14.90;99.90
11894;DHT22;6006;49.696;8.662;2023-06-10T02:10:08;14.80;1.00
11894;DHT22;6006;49.696;8.662;2023-06-10T02:12:36;14.70;1.00
11894;DHT22;6006;49.696;8.662;2023-06-10T02:15:03;14.60;99.90
11894;DHT22;6006;49.696;8.662;2023-06-10T02:17:30;14.50;99.90
11894;DHT22;6006;49.696;8.662;2023-06-10T02:19:58;14.50;1.00
11894;DHT22;6006;49.696;8.662;2023-06-10T02:22:25;14.40;99.90
11894;DHT22;6006;49.696;8.662;2023-06-10T02:24:52;14.40;1.00
11894;DHT22;6006;49.696;8.662;2023-06-10T02:27:19;14.30;1.00
11894;DHT22;6006;49.696;8.662;2023-06-10T02:29:47;14.20;1.00
11894;DHT22;6006;49.696;8.662;2023-06-10T02:32:14;14.20;1.00
11894;DHT22;6006;49.696;8.662;2023-06-10T02:34:41;14.10;1.00
11894;DHT22;6006;49.696;8.662;2023-06-10T02:37:08;14.10;1.00
11894;DHT22;6006;49.696;8.662;2023-06-10T02:39:35;14.10;1.00
11894;DHT22;6006;49.696;8.662;2023-06-10T02:42:03;14.10;1.00
11894;DHT22;6006;49.696;8.662;2023-06-10T02:44:31;14.00;1.00
11894;DHT22;6006;49.696;8.662;2023-06-10T02:46:59;14.00;1.00
11894;DHT22;6006;49.696;8.662;2023-06-10T02:49:26;14.00;1.00
11894;DHT22;6006;49.696;8.662;2023-06-10T02:51:53;13.90;1.00
11894;DHT22;6006;49.696;8.662;2023-06-10T02:54:20;13.80;63.90
11894;DHT22;6006;49.696;8.662;2023-06-10T02:56:48;13.80;20.90
11894;DHT22;6006;49.696;8.662;2023-06-10T02:59:14;13.70;27.80
11894;DHT22;6006;49.696;8.662;2023-06-10T03:01:42;13.70;79.00
11894;DHT22;6006;49.696;8.662;2023-06-10T03:04:11;13.80;1.00
11894;DHT22;6006;49.696;8.662;2023-06-10T03:06:39;13.70;78.40
11894;DHT22;6006;49.696;8.662;2023-06-10T03:09:07;13.70;99.90
11894;DHT22;6006;49.696;8.662;2023-06-10T03:11:34;13.60;99.90
11894;DHT22;6006;49.696;8.662;2023-06-10T03:14:01;13.60;99.90
11894;DHT22;6006;49.696;8.662;2023-06-10T03:16:28;13.60;99.90
11894;DHT22;6006;49.696;8.662;2023-06-10T03:18:56;13.60;99.90
11894;DHT22;6006;49.696;8.662;2023-06-10T03:21:25;13.60;99.90
11894;DHT22;6006;49.696;8.662;2023-06-10T03:23:52;13.50;99.90
11894;DHT22;6006;49.696;8.662;2023-06-10T03:26:19;13.50;99.90
11894;DHT22;6006;49.696;8.662;2023-06-10T03:28:47;13.50;99.90
11894;DHT22;6006;49.696;8.662;2023-06-10T03:31:14;13.50;99.90
11894;DHT22;6006;49.696;8.662;2023-06-10T03:33:42;13.40;99.90
11894;DHT22;6006;49.696;8.662;2023-06-10T03:36:09;13.50;99.90
11894;DHT22;6006;49.696;8.662;2023-06-10T03:38:37;13.50;99.90
11894;DHT22;6006;49.696;8.662;2023-06-10T03:41:04;13.50;99.90
11894;DHT22;6006;49.696;8.662;2023-06-10T03:43:31;13.50;99.90
11894;DHT22;6006;49.696;8.662;2023-06-10T03:45:58;13.50;99.90
11894;DHT22;6006;49.696;8.662;2023-06-10T03:48:25;13.50;99.90
11894;DHT22;6006;49.696;8.662;2023-06-10T03:50:52;13.60;99.90
11894;DHT22;6006;49.696;8.662;2023-06-10T03:53:19;13.60;99.90
11894;DHT22;6006;49.696;8.662;2023-06-10T03:55:48;13.70;99.90
11894;DHT22;6006;49.696;8.662;2023-06-10T03:58:15;13.70;99.90
11894;DHT22;6006;49.696;8.662;2023-06-10T04:00:43;13.70;99.90
11894;DHT22;6006;49.696;8.662;2023-06-10T04:03:11;13.80;99.90
11894;DHT22;6006;49.696;8.662;2023-06-10T04:05:40;13.80;99.90
11894;DHT22;6006;49.696;8.662;2023-06-10T04:08:07;13.90;99.90
11894;DHT22;6006;49.696;8.662;2023-06-10T04:10:34;14.00;99.90
11894;DHT22;6006;49.696;8.662;2023-06-10T04:13:02;14.20;99.90
11894;DHT22;6006;49.696;8.662;2023-06-10T04:15:29;14.20;99.90
11894;DHT22;6006;49.696;8.662;2023-06-10T04:17:58;14.30;67.70
11894;DHT22;6006;49.696;8.662;2023-06-10T04:20:25;14.40;19.30
11894;DHT22;6006;49.696;8.662;2023-06-10T04:22:52;14.40;16.20
11894;DHT22;6006;49.696;8.662;2023-06-10T04:25:19;14.50;23.70
11894;DHT22;6006;49.696;8.662;2023-06-10T04:27:46;14.60;37.40
11894;DHT22;6006;49.696;8.662;2023-06-10T04:30:16;14.60;33.80
11894;DHT22;6006;49.696;8.662;2023-06-10T04:32:43;14.70;1.00
11894;DHT22;6006;49.696;8.662;2023-06-10T04:35:11;14.90;1.00
11894;DHT22;6006;49.696;8.662;2023-06-10T04:37:38;15.00;1.00
11894;DHT22;6006;49.696;8.662;2023-06-10T04:40:06;15.10;99.90
11894;DHT22;6006;49.696;8.662;2023-06-10T04:42:33;15.30;99.90
11894;DHT22;6006;49.696;8.662;2023-06-10T04:45:00;15.40;1.00
11894;DHT22;6006;49.696;8.662;2023-06-10T04:47:28;15.40;99.90
11894;DHT22;6006;49.696;8.662;2023-06-10T04:49:58;15.50;1.00
11894;DHT22;6006;49.696;8.662;2023-06-10T04:52:25;15.70;35.00
11894;DHT22;6006;49.696;8.662;2023-06-10T04:54:52;15.90;1.00
11894;DHT22;6006;49.696;8.662;2023-06-10T04:57:20;16.10;1.00
11894;DHT22;6006;49.696;8.662;2023-06-10T04:59:47;16.40;1.00
11894;DHT22;6006;49.696;8.662;2023-06-10T05:02:14;16.70;99.90
11894;DHT22;6006;49.696;8.662;2023-06-10T05:04:42;16.90;39.40
11894;DHT22;6006;49.696;8.662;2023-06-10T05:07:09;17.20;1.00
11894;DHT22;6006;49.696;8.662;2023-06-10T05:09:36;17.30;96.70
11894;DHT22;6006;49.696;8.662;2023-06-10T05:12:03;17.60;99.90
11894;DHT22;6006;49.696;8.662;2023-06-10T05:14:30;17.80;99.90
11894;DHT22;6006;49.696;8.662;2023-06-10T05:16:57;18.10;1.00
11894;DHT22;6006;49.696;8.662;2023-06-10T05:19:24;18.40;1.00
11894;DHT22;6006;49.696;8.662;2023-06-10T05:21:54;18.60;99.90
11894;DHT22;6006;49.696;8.662;2023-06-10T05:24:21;18.90;99.90
11894;DHT22;6006;49.696;8.662;2023-06-10T05:26:48;19.10;25.10
11894;DHT22;6006;49.696;8.662;2023-06-10T05:29:15;19.40;1.00
11894;DHT22;6006;49.696;8.662;2023-06-10T05:31:42;19.60;1.00
11894;DHT22;6006;49.696;8.662;2023-06-10T05:34:09;19.70;1.00
11894;DHT22;6006;49.696;8.662;2023-06-10T05:36:36;19.90;1.00
11894;DHT22;6006;49.696;8.662;2023-06-10T05:39:04;20.10;1.00
11894;DHT22;6006;49.696;8.662;2023-06-10T05:41:31;20.30;1.00
11894;DHT22;6006;49.696;8.662;2023-06-10T05:43:58;20.50;1.00
11894;DHT22;6006;49.696;8.662;2023-06-10T05:46:25;20.60;1.00
11894;DHT22;6006;49.696;8.662;2023-06-10T05:48:52;20.80;1.00
11894;DHT22;6006;49.696;8.662;2023-06-10T05:51:19;20.90;1.00
11894;DHT22;6006;49.696;8.662;2023-06-10T05:53:45;21.10;1.00
11894;DHT22;6006;49.696;8.662;2023-06-10T05:56:14;21.30;99.90
11894;DHT22;6006;49.696;8.662;2023-06-10T05:58:41;21.50;99.90
11894;DHT22;6006;49.696;8.662;2023-06-10T06:01:09;21.80;99.90
11894;DHT22;6006;49.696;8.662;2023-06-10T06:03:36;22.10;99.90
11894;DHT22;6006;49.696;8.662;2023-06-10T06:06:03;22.30;99.90
11894;DHT22;6006;49.696;8.662;2023-06-10T06:08:30;22.60;99.90
11894;DHT22;6006;49.696;8.662;2023-06-10T06:10:57;23.00;99.90
11894;DHT22;6006;49.696;8.662;2023-06-10T06:13:25;23.40;99.90
11894;DHT22;6006;49.696;8.662;2023-06-10T06:15:52;23.90;99.90
11894;DHT22;6006;49.696;8.662;2023-06-10T06:18:19;24.40;99.90
11894;DHT22;6006;49.696;8.662;2023-06-10T06:20:46;24.70;99.90
11894;DHT22;6006;49.696;8.662;2023-06-10T06:23:13;25.10;99.90
11894;DHT22;6006;49.696;8.662;2023-06-10T06:25:40;25.60;99.90
11894;DHT22;6006;49.696;8.662;2023-06-10T06:28:07;25.70;99.90
11894;DHT22;6006;49.696;8.662;2023-06-10T06:30:36;25.90;99.90
11894;DHT22;6006;49.696;8.662;2023-06-10T06:33:02;26.30;99.90
11894;DHT22;6006;49.696;8.662;2023-06-10T06:35:30;26.70;99.90
11894;DHT22;6006;49.696;8.662;2023-06-10T06:37:57;26.60;99.90
11894;DHT22;6006;49.696;8.662;2023-06-10T06:40:25;26.50;99.90
11894;DHT22;6006;49.696;8.662;2023-06-10T06:42:52;26.50;99.90
11894;DHT22;6006;49.696;8.662;2023-06-10T06:45:19;26.50;99.90
11894;DHT22;6006;49.696;8.662;2023-06-10T06:47:47;26.50;99.90
11894;DHT22;6006;49.696;8.662;2023-06-10T06:50:14;26.80;99.90
11894;DHT22;6006;49.696;8.662;2023-06-10T06:52:42;27.10;99.90
11894;DHT22;6006;49.696;8.662;2023-06-10T06:55:08;27.70;99.90
11894;DHT22;6006;49.696;8.662;2023-06-10T06:57:35;27.70;99.90
11894;DHT22;6006;49.696;8.662;2023-06-10T07:00:04;28.00;99.90
11894;DHT22;6006;49.696;8.662;2023-06-10T07:02:31;28.20;99.90
11894;DHT22;6006;49.696;8.662;2023-06-10T07:05:00;28.30;99.90
11894;DHT22;6006;49.696;8.662;2023-06-10T07:07:27;28.70;99.90
11894;DHT22;6006;49.696;8.662;2023-06-10T07:09:53;29.10;99.90
11894;DHT22;6006;49.696;8.662;2023-06-10T07:12:20;29.10;99.90
11894;DHT22;6006;49.696;8.662;2023-06-10T07:14:49;28.80;99.90
11894;DHT22;6006;49.696;8.662;2023-06-10T07:17:16;29.00;99.90
11894;DHT22;6006;49.696;8.662;2023-06-10T07:19:44;29.40;99.90
11894;DHT22;6006;49.696;8.662;2023-06-10T07:22:12;29.40;99.90
11894;DHT22;6006;49.696;8.662;2023-06-10T07:24:39;29.90;99.90
11894;DHT22;6006;49.696;8.662;2023-06-10T07:27:06;29.50;99.90
11894;DHT22;6006;49.696;8.662;2023-06-10T07:29:33;29.50;99.90
11894;DHT22;6006;49.696;8.662;2023-06-10T07:32:02;29.50;99.90
11894;DHT22;6006;49.696;8.662;2023-06-10T07:34:28;29.50;99.90
11894;DHT22;6006;49.696;8.662;2023-06-10T07:36:55;29.50;99.90
11894;DHT22;6006;49.696;8.662;2023-06-10T07:39:24;29.60;99.90
11894;DHT22;6006;49.696;8.662;2023-06-10T07:41:50;29.50;99.90
11894;DHT22;6006;49.696;8.662;2023-06-10T07:44:19;30.00;99.90
11894;DHT22;6006;49.696;8.662;2023-06-10T07:46:46;30.30;99.90
11894;DHT22;6006;49.696;8.662;2023-06-10T07:49:13;30.50;99.90
11894;DHT22;6006;49.696;8.662;2023-06-10T07:51:40;30.70;99.90
11894;DHT22;6006;49.696;8.662;2023-06-10T07:54:07;31.00;99.90
11894;DHT22;6006;49.696;8.662;2023-06-10T07:56:35;30.60;99.90
11894;DHT22;6006;49.696;8.662;2023-06-10T07:59:02;30.40;99.90
11894;DHT22;6006;49.696;8.662;2023-06-10T08:01:29;30.00;99.90
11894;DHT22;6006;49.696;8.662;2023-06-10T08:03:56;29.70;99.90
11894;DHT22;6006;49.696;8.662;2023-06-10T08:06:23;29.30;99.90
11894;DHT22;6006;49.696;8.662;2023-06-10T08:08:50;29.50;99.90
11894;DHT22;6006;49.696;8.662;2023-06-10T08:11:17;30.00;99.90
11894;DHT22;6006;49.696;8.662;2023-06-10T08:13:45;29.60;99.90
11894;DHT22;6006;49.696;8.662;2023-06-10T08:16:12;29.70;99.90
11894;DHT22;6006;49.696;8.662;2023-06-10T08:18:39;29.40;99.90
11894;DHT22;6006;49.696;8.662;2023-06-10T08:21:06;29.50;99.90
11894;DHT22;6006;49.696;8.662;2023-06-10T08:23:33;30.00;99.90
11894;DHT22;6006;49.696;8.662;2023-06-10T08:26:00;30.10;99.90
11894;DHT22;6006;49.696;8.662;2023-06-10T08:28:27;30.10;99.90
11894;DHT22;6006;49.696;8.662;2023-06-10T08:30:55;30.30;99.90
11894;DHT22;6006;49.696;8.662;2023-06-10T08:33:22;30.80;99.90
11894;DHT22;6006;49.696;8.662;2023-06-10T08:35:49;30.90;99.90
11894;DHT22;6006;49.696;8.662;2023-06-10T08:38:16;31.00;99.90
11894;DHT22;6006;49.696;8.662;2023-06-10T08:40:43;30.60;99.90
11894;DHT22;6006;49.696;8.662;2023-06-10T08:43:17;30.00;99.90
11894;DHT22;6006;49.696;8.662;2023-06-10T08:45:48;29.70;99.90
11894;DHT22;6006;49.696;8.662;2023-06-10T08:48:17;29.20;99.90
11894;DHT22;6006;49.696;8.662;2023-06-10T08:50:46;29.20;99.90
11894;DHT22;6006;49.696;8.662;2023-06-10T08:53:17;29.40;99.90
11894;DHT22;6006;49.696;8.662;2023-06-10T08:55:49;29.80;99.90
11894;DHT22;6006;49.696;8.662;2023-06-10T08:58:18;29.70;99.90
11894;DHT22;6006;49.696;8.662;2023-06-10T09:00:45;29.60;99.90
11894;DHT22;6006;49.696;8.662;2023-06-10T09:03:13;29.90;99.90
11894;DHT22;6006;49.696;8.662;2023-06-10T09:05:42;30.00;99.90
11894;DHT22;6006;49.696;8.662;2023-06-10T09:08:09;30.00;99.90
11894;DHT22;6006;49.696;8.662;2023-06-10T09:10:36;30.00;99.90
11894;DHT22;6006;49.696;8.662;2023-06-10T09:13:03;29.70;99.90
11894;DHT22;6006;49.696;8.662;2023-06-10T09:15:30;29.70;99.90
11894;DHT22;6006;49.696;8.662;2023-06-10T09:17:58;29.50;99.90
11894;DHT22;6006;49.696;8.662;2023-06-10T09:20:25;29.80;99.90
11894;DHT22;6006;49.696;8.662;2023-06-10T09:22:53;29.90;99.90
11894;DHT22;6006;49.696;8.662;2023-06-10T09:25:34;30.40;99.90
11894;DHT22;6006;49.696;8.662;2023-06-10T09:28:02;30.20;99.90
11894;DHT22;6006;49.696;8.662;2023-06-10T09:30:30;30.20;99.90
11894;DHT22;6006;49.696;8.662;2023-06-10T09:32:58;29.50;99.90
11894;DHT22;6006;49.696;8.662;2023-06-10T09:35:26;29.60;99.90
11894;DHT22;6006;49.696;8.662;2023-06-10T09:37:56;29.80;99.90
11894;DHT22;6006;49.696;8.662;2023-06-10T09:40:23;30.20;99.90
11894;DHT22;6006;49.696;8.662;2023-06-10T09:42:53;29.80;99.90
11894;DHT22;6006;49.696;8.662;2023-06-10T09:45:21;29.90;99.90
11894;DHT22;6006;49.696;8.662;2023-06-10T09:47:51;30.20;99.90
11894;DHT22;6006;49.696;8.662;2023-06-10T09:50:18;30.10;99.90
11894;DHT22;6006;49.696;8.662;2023-06-10T09:52:46;30.40;99.90
11894;DHT22;6006;49.696;8.662;2023-06-10T09:55:15;30.50;99.90
11894;DHT22;6006;49.696;8.662;2023-06-10T09:57:41;30.60;99.90
11894;DHT22;6006;49.696;8.662;2023-06-10T10:00:15;30.70;99.90
11894;DHT22;6006;49.696;8.662;2023-06-10T10:02:46;30.70;99.90
11894;DHT22;6006;49.696;8.662;2023-06-10T10:05:14;30.90;99.90
11894;DHT22;6006;49.696;8.662;2023-06-10T10:07:42;30.80;99.90
11894;DHT22;6006;49.696;8.662;2023-06-10T10:10:09;30.80;99.90
11894;DHT22;6006;49.696;8.662;2023-06-10T10:12:38;30.80;99.90
11894;DHT22;6006;49.696;8.662;2023-06-10T10:15:07;30.50;99.90
11894;DHT22;6006;49.696;8.662;2023-06-10T10:17:34;30.80;99.90
11894;DHT22;6006;49.696;8.662;2023-06-10T10:20:05;31.30;99.90
11894;DHT22;6006;49.696;8.662;2023-06-10T10:22:38;31.30;99.90
11894;DHT22;6006;49.696;8.662;2023-06-10T10:25:10;32.10;99.90
11894;DHT22;6006;49.696;8.662;2023-06-10T10:27:46;32.30;99.90
11894;DHT22;6006;49.696;8.662;2023-06-10T10:30:16;32.70;99.90
11894;DHT22;6006;49.696;8.662;2023-06-10T10:32:51;33.20;99.90
11894;DHT22;6006;49.696;8.662;2023-06-10T10:35:21;32.60;99.90
11894;DHT22;6006;49.696;8.662;2023-06-10T10:37:48;32.20;99.90
11894;DHT22;6006;49.696;8.662;2023-06-10T10:40:16;32.00;99.90
11894;DHT22;6006;49.696;8.662;2023-06-10T10:42:45;32.30;99.90
11894;DHT22;6006;49.696;8.662;2023-06-10T10:45:12;32.20;99.90
11894;DHT22;6006;49.696;8.662;2023-06-10T10:47:39;31.90;99.90
11894;DHT22;6006;49.696;8.662;2023-06-10T10:50:14;31.50;99.90
11894;DHT22;6006;49.696;8.662;2023-06-10T10:52:56;31.20;99.90
11894;DHT22;6006;49.696;8.662;2023-06-10T10:55:26;31.00;99.90
11894;DHT22;6006;49.696;8.662;2023-06-10T10:57:59;31.30;99.90
11894;DHT22;6006;49.696;8.662;2023-06-10T11:00:30;31.20;99.90
11894;DHT22;6006;49.696;8.662;2023-06-10T11:02:59;31.40;99.90
11894;DHT22;6006;49.696;8.662;2023-06-10T11:05:37;31.80;99.90
11894;DHT22;6006;49.696;8.662;2023-06-10T11:08:05;32.20;99.90
11894;DHT22;6006;49.696;8.662;2023-06-10T11:10:34;32.20;99.90
11894;DHT22;6006;49.696;8.662;2023-06-10T11:13:06;32.30;99.90
11894;DHT22;6006;49.696;8.662;2023-06-10T11:15:38;32.70;99.90
11894;DHT22;6006;49.696;8.662;2023-06-10T11:18:20;32.50;99.90
11894;DHT22;6006;49.696;8.662;2023-06-10T11:20:55;32.20;99.90
11894;DHT22;6006;49.696;8.662;2023-06-10T11:23:41;32.80;99.90
11894;DHT22;6006;49.696;8.662;2023-06-10T11:26:30;33.00;99.90
11894;DHT22;6006;49.696;8.662;2023-06-10T11:29:10;33.40;99.90
11894;DHT22;6006;49.696;8.662;2023-06-10T11:31:45;33.00;99.90
11894;DHT22;6006;49.696;8.662;2023-06-10T11:34:13;33.10;99.90
11894;DHT22;6006;49.696;8.662;2023-06-10T11:36:42;33.30;99.90
11894;DHT22;6006;49.696;8.662;2023-06-10T11:39:11;33.70;99.90
11894;DHT22;6006;49.696;8.662;2023-06-10T11:41:39;33.10;99.30
11894;DHT22;6006;49.696;8.662;2023-06-10T11:44:10;32.90;99.90
11894;DHT22;6006;49.696;8.662;2023-06-10T11:46:37;32.60;99.90
11894;DHT22;6006;49.696;8.662;2023-06-10T11:49:05;32.60;99.90
11894;DHT22;6006;49.696;8.662;2023-06-10T11:51:34;32.90;99.90
11894;DHT22;6006;49.696;8.662;2023-06-10T11:54:01;33.10;99.90
11894;DHT22;6006;49.696;8.662;2023-06-10T11:56:30;32.90;99.90
11894;DHT22;6006;49.696;8.662;2023-06-10T11:58:58;33.20;99.90
11894;DHT22;6006;49.696;8.662;2023-06-10T12:01:27;32.90;99.90
11894;DHT22;6006;49.696;8.662;2023-06-10T12:04:02;33.00;99.90
11894;DHT22;6006;49.696;8.662;2023-06-10T12:06:40;33.00;99.90
11894;DHT22;6006;49.696;8.662;2023-06-10T12:09:13;32.70;99.90
11894;DHT22;6006;49.696;8.662;2023-06-10T12:11:41;32.60;99.90
11894;DHT22;6006;49.696;8.662;2023-06-10T12:14:08;32.80;99.90
11894;DHT22;6006;49.696;8.662;2023-06-10T12:16:37;33.00;99.90
11894;DHT22;6006;49.696;8.662;2023-06-10T12:19:04;33.10;99.90
11894;DHT22;6006;49.696;8.662;2023-06-10T12:21:33;33.00;99.90
11894;DHT22;6006;49.696;8.662;2023-06-10T12:24:06;32.90;99.90
11894;DHT22;6006;49.696;8.662;2023-06-10T12:26:37;33.10;99.90
11894;DHT22;6006;49.696;8.662;2023-06-10T12:29:19;33.30;99.90
11894;DHT22;6006;49.696;8.662;2023-06-10T12:31:57;33.00;99.90
11894;DHT22;6006;49.696;8.662;2023-06-10T12:34:35;32.60;99.90
11894;DHT22;6006;49.696;8.662;2023-06-10T12:37:04;33.00;99.90
11894;DHT22;6006;49.696;8.662;2023-06-10T12:39:31;33.30;99.90
11894;DHT22;6006;49.696;8.662;2023-06-10T12:41:59;33.10;99.90
11894;DHT22;6006;49.696;8.662;2023-06-10T12:44:31;33.10;99.90
11894;DHT22;6006;49.696;8.662;2023-06-10T12:46:59;33.20;99.90
11894;DHT22;6006;49.696;8.662;2023-06-10T12:49:26;33.30;99.90
11894;DHT22;6006;49.696;8.662;2023-06-10T12:51:53;33.50;99.90
11894;DHT22;6006;49.696;8.662;2023-06-10T12:54:20;31.70;99.90
11894;DHT22;6006;49.696;8.662;2023-06-10T12:56:47;31.00;99.90
11894;DHT22;6006;49.696;8.662;2023-06-10T12:59:14;31.20;99.90
11894;DHT22;6006;49.696;8.662;2023-06-10T13:01:41;32.10;99.90
11894;DHT22;6006;49.696;8.662;2023-06-10T13:04:09;32.30;99.90
11894;DHT22;6006;49.696;8.662;2023-06-10T13:06:37;32.60;99.90
11894;DHT22;6006;49.696;8.662;2023-06-10T13:09:05;32.50;99.90
11894;DHT22;6006;49.696;8.662;2023-06-10T13:11:33;32.00;99.90
11894;DHT22;6006;49.696;8.662;2023-06-10T13:14:00;32.20;99.90
11894;DHT22;6006;49.696;8.662;2023-06-10T13:16:28;32.60;99.90
11894;DHT22;6006;49.696;8.662;2023-06-10T13:18:55;33.00;99.90
11894;DHT22;6006;49.696;8.662;2023-06-10T13:21:24;33.10;99.90
11894;DHT22;6006;49.696;8.662;2023-06-10T13:23:51;33.20;99.90
11894;DHT22;6006;49.696;8.662;2023-06-10T13:26:18;33.20;99.90
11894;DHT22;6006;49.696;8.662;2023-06-10T13:28:45;32.30;99.90
11894;DHT22;6006;49.696;8.662;2023-06-10T13:31:12;32.40;99.90
11894;DHT22;6006;49.696;8.662;2023-06-10T13:33:38;33.10;99.90
11894;DHT22;6006;49.696;8.662;2023-06-10T13:36:06;33.40;99.90
11894;DHT22;6006;49.696;8.662;2023-06-10T13:38:34;33.20;99.90
11894;DHT22;6006;49.696;8.662;2023-06-10T13:41:01;33.30;99.90
11894;DHT22;6006;49.696;8.662;2023-06-10T13:43:28;33.40;99.90
11894;DHT22;6006;49.696;8.662;2023-06-10T13:45:55;34.00;99.90
11894;DHT22;6006;49.696;8.662;2023-06-10T13:48:22;34.20;99.90
11894;DHT22;6006;49.696;8.662;2023-06-10T13:50:49;34.10;99.90
11894;DHT22;6006;49.696;8.662;2023-06-10T13:53:16;34.40;99.90
11894;DHT22;6006;49.696;8.662;2023-06-10T13:55:44;34.30;99.90
11894;DHT22;6006;49.696;8.662;2023-06-10T13:58:11;34.00;99.90
11894;DHT22;6006;49.696;8.662;2023-06-10T14:00:38;33.60;99.90
11894;DHT22;6006;49.696;8.662;2023-06-10T14:03:05;33.70;99.90
11894;DHT22;6006;49.696;8.662;2023-06-10T14:05:32;33.20;99.90
11894;DHT22;6006;49.696;8.662;2023-06-10T14:07:59;32.00;99.90
11894;DHT22;6006;49.696;8.662;2023-06-10T14:10:26;32.30;99.90
11894;DHT22;6006;49.696;8.662;2023-06-10T14:12:54;32.70;99.90
11894;DHT22;6006;49.696;8.662;2023-06-10T14:15:21;33.50;99.90
11894;DHT22;6006;49.696;8.662;2023-06-10T14:17:47;33.90;99.90
11894;DHT22;6006;49.696;8.662;2023-06-10T14:20:14;33.60;99.90
11894;DHT22;6006;49.696;8.662;2023-06-10T14:22:41;32.80;99.90
11894;DHT22;6006;49.696;8.662;2023-06-10T14:25:08;32.80;99.90
11894;DHT22;6006;49.696;8.662;2023-06-10T14:27:36;32.80;99.90
11894;DHT22;6006;49.696;8.662;2023-06-10T14:30:06;32.90;99.90
11894;DHT22;6006;49.696;8.662;2023-06-10T14:32:33;32.90;99.90
11894;DHT22;6006;49.696;8.662;2023-06-10T14:35:00;33.20;99.90
11894;DHT22;6006;49.696;8.662;2023-06-10T14:37:27;33.60;99.90
11894;DHT22;6006;49.696;8.662;2023-06-10T14:39:53;33.70;99.90
11894;DHT22;6006;49.696;8.662;2023-06-10T14:42:20;33.40;99.90
11894;DHT22;6006;49.696;8.662;2023-06-10T14:44:47;33.60;99.90
11894;DHT22;6006;49.696;8.662;2023-06-10T14:47:16;34.10;99.90
11894;DHT22;6006;49.696;8.662;2023-06-10T14:49:43;34.30;99.90
11894;DHT22;6006;49.696;8.662;2023-06-10T14:52:10;33.60;99.90
11894;DHT22;6006;49.696;8.662;2023-06-10T14:54:37;33.90;99.90
11894;DHT22;6006;49.696;8.662;2023-06-10T14:57:04;33.70;99.90
11894;DHT22;6006;49.696;8.662;2023-06-10T14:59:32;34.10;99.90
11894;DHT22;6006;49.696;8.662;2023-06-10T15:02:00;33.70;99.90
11894;DHT22;6006;49.696;8.662;2023-06-10T15:04:28;33.70;99.90
11894;DHT22;6006;49.696;8.662;2023-06-10T15:06:55;33.20;99.90
11894;DHT22;6006;49.696;8.662;2023-06-10T15:09:22;33.40;99.90
11894;DHT22;6006;49.696;8.662;2023-06-10T15:11:49;33.50;99.90
11894;DHT22;6006;49.696;8.662;2023-06-10T15:14:16;33.20;99.90
11894;DHT22;6006;49.696;8.662;2023-06-10T15:16:43;33.30;99.90
11894;DHT22;6006;49.696;8.662;2023-06-10T15:19:09;33.30;99.90
11894;DHT22;6006;49.696;8.662;2023-06-10T15:21:38;33.00;99.90
11894;DHT22;6006;49.696;8.662;2023-06-10T15:24:05;32.80;99.90
11894;DHT22;6006;49.696;8.662;2023-06-10T15:26:32;33.20;99.90
11894;DHT22;6006;49.696;8.662;2023-06-10T15:28:59;33.20;99.90
11894;DHT22;6006;49.696;8.662;2023-06-10T15:31:29;32.60;99.90
11894;DHT22;6006;49.696;8.662;2023-06-10T15:33:57;32.30;99.90
11894;DHT22;6006;49.696;8.662;2023-06-10T15:36:24;31.90;99.90
11894;DHT22;6006;49.696;8.662;2023-06-10T15:38:52;32.00;99.90
11894;DHT22;6006;49.696;8.662;2023-06-10T15:41:19;32.10;99.90
11894;DHT22;6006;49.696;8.662;2023-06-10T15:43:47;32.00;99.90
11894;DHT22;6006;49.696;8.662;2023-06-10T15:46:14;32.30;99.90
11894;DHT22;6006;49.696;8.662;2023-06-10T15:48:40;32.00;99.90
11894;DHT22;6006;49.696;8.662;2023-06-10T15:51:07;31.60;99.90
11894;DHT22;6006;49.696;8.662;2023-06-10T15:53:34;31.80;99.90
11894;DHT22;6006;49.696;8.662;2023-06-10T15:56:03;32.00;99.90